Time;durP1;ratioP1;P1;durP2;ratioP2;P2;SDS_P1;SDS_P2;PMS_P1;PMS_P2;Temp;Humidity;BMP_temperature;BMP_pressure;BME280_temperature;BME280_humidity;BME280_pressure;Samples;Min_cycle;Max_cycle;Signal;HPM_P1;HPM_P2
2023/12/06 00:00:22;;;;;;;12.13;3.75;;;2.90;99.90;;;;;;4995791;28;20034;-80
2023/12/06 00:02:48;;;;;;;32.42;14.45;;;2.90;99.90;;;;;;4976447;28;20534;-79
2023/12/06 00:05:13;;;;;;;27.67;12.90;;;2.90;99.90;;;;;;4967096;28;20452;-79
2023/12/06 00:07:39;;;;;;;31.45;14.07;;;2.90;99.90;;;;;;4973925;28;20034;-79
2023/12/06 00:10:05;;;;;;;27.40;13.80;;;2.90;99.90;;;;;;4979171;28;20089;-80
2023/12/06 00:12:31;;;;;;;17.77;6.93;;;2.90;99.90;;;;;;4988655;28;20766;-79
2023/12/06 00:14:56;;;;;;;31.80;14.82;;;2.90;99.90;;;;;;4994530;28;20034;-79
2023/12/06 00:17:22;;;;;;;36.45;16.15;;;2.90;99.90;;;;;;4964466;28;20534;-79
2023/12/06 00:19:47;;;;;;;32.80;15.90;;;2.90;99.90;;;;;;4982952;28;20039;-79
2023/12/06 00:22:13;;;;;;;34.10;15.30;;;2.90;99.90;;;;;;4994958;28;20113;-79
2023/12/06 00:24:38;;;;;;;38.80;17.50;;;2.80;99.90;;;;;;5003802;28;20038;-79
2023/12/06 00:27:04;;;;;;;36.90;16.23;;;2.70;99.90;;;;;;4984649;28;20037;-79
2023/12/06 00:29:30;;;;;;;41.78;20.55;;;2.70;99.90;;;;;;4996085;28;20029;-79
2023/12/06 00:31:55;;;;;;;40.03;19.45;;;2.80;99.90;;;;;;4970507;28;20033;-79
2023/12/06 00:34:21;;;;;;;37.80;18.95;;;2.70;99.90;;;;;;4973892;28;20035;-79
2023/12/06 00:36:48;;;;;;;33.05;16.02;;;2.60;99.90;;;;;;4986186;28;20035;-79
2023/12/06 00:39:13;;;;;;;30.40;15.57;;;2.70;99.90;;;;;;4992550;28;20035;-79
2023/12/06 00:41:39;;;;;;;41.45;19.33;;;2.70;99.90;;;;;;4968621;28;20022;-79
2023/12/06 00:44:05;;;;;;;41.53;17.48;;;2.70;99.90;;;;;;4986493;28;20038;-79
2023/12/06 00:46:31;;;;;;;34.53;16.45;;;2.60;99.90;;;;;;4974715;28;20038;-79
2023/12/06 00:48:58;;;;;;;38.92;16.45;;;2.60;99.90;;;;;;4983990;28;20026;-79
2023/12/06 00:51:24;;;;;;;39.00;18.35;;;2.50;99.90;;;;;;4985814;28;20040;-79
2023/12/06 00:53:50;;;;;;;45.85;19.40;;;2.60;99.90;;;;;;5000508;28;20038;-79
2023/12/06 00:56:15;;;;;;;37.50;18.38;;;2.70;99.90;;;;;;4983043;28;20465;-78
2023/12/06 00:58:42;;;;;;;33.47;16.33;;;2.60;99.90;;;;;;4998693;28;20490;-79
2023/12/06 01:01:07;;;;;;;37.38;16.70;;;2.50;99.90;;;;;;4986395;28;20108;-79
2023/12/06 01:03:33;;;;;;;31.02;13.95;;;2.60;99.90;;;;;;4976668;28;20046;-78
2023/12/06 01:05:58;;;;;;;33.40;15.73;;;2.60;99.90;;;;;;4992635;28;20041;-78
2023/12/06 01:08:25;;;;;;;41.10;18.48;;;2.60;99.90;;;;;;4968216;28;20125;-78
2023/12/06 01:10:51;;;;;;;38.63;17.33;;;2.50;99.90;;;;;;4985606;28;20552;-77
2023/12/06 01:13:17;;;;;;;42.47;19.52;;;2.50;99.90;;;;;;4967651;28;20049;-78
2023/12/06 01:15:43;;;;;;;40.28;18.17;;;2.50;99.90;;;;;;4983628;28;20097;-78
2023/12/06 01:18:08;;;;;;;38.65;17.63;;;2.50;99.90;;;;;;4985078;28;20079;-78
2023/12/06 01:20:34;;;;;;;40.08;18.80;;;2.50;99.90;;;;;;4993273;28;20049;-79
2023/12/06 01:22:59;;;;;;;46.00;22.05;;;2.50;99.90;;;;;;4987509;28;20410;-80
2023/12/06 01:25:25;;;;;;;43.25;20.60;;;2.40;99.90;;;;;;4989218;28;20020;-77
2023/12/06 01:27:50;;;;;;;48.13;23.08;;;2.40;99.90;;;;;;4986921;28;20398;-78
2023/12/06 01:30:16;;;;;;;39.03;17.40;;;2.50;99.90;;;;;;4971816;28;20034;-78
2023/12/06 01:32:42;;;;;;;30.35;13.75;;;2.60;99.90;;;;;;4987619;28;20030;-79
2023/12/06 01:35:08;;;;;;;44.95;19.77;;;2.50;99.90;;;;;;4976691;28;20810;-79
2023/12/06 01:37:33;;;;;;;43.45;19.27;;;2.50;99.90;;;;;;4974123;28;20034;-78
2023/12/06 01:39:59;;;;;;;38.92;18.00;;;2.40;99.90;;;;;;4982388;28;20043;-78
2023/12/06 01:42:24;;;;;;;46.80;20.48;;;2.30;99.90;;;;;;4987792;28;20031;-79
2023/12/06 01:44:50;;;;;;;45.20;18.17;;;2.40;99.90;;;;;;4984396;28;20026;-78
2023/12/06 01:47:18;;;;;;;47.05;20.10;;;2.50;99.90;;;;;;4997203;28;20041;-78
2023/12/06 01:49:44;;;;;;;42.03;18.42;;;2.50;99.90;;;;;;4998497;28;20036;-78
2023/12/06 01:52:09;;;;;;;28.70;14.15;;;2.40;99.90;;;;;;4972002;28;20026;-78
2023/12/06 01:54:35;;;;;;;45.35;20.33;;;2.40;99.90;;;;;;5001056;28;20446;-77
2023/12/06 01:57:01;;;;;;;39.97;17.25;;;2.40;99.90;;;;;;4984460;28;22361;-79
2023/12/06 01:59:26;;;;;;;41.17;20.52;;;2.40;99.90;;;;;;4998963;28;20381;-79
2023/12/06 02:01:52;;;;;;;43.92;17.95;;;2.40;99.90;;;;;;4998268;28;20058;-80
2023/12/06 02:04:17;;;;;;;43.90;18.42;;;2.40;99.90;;;;;;4982436;28;20042;-79
2023/12/06 02:06:43;;;;;;;46.92;20.52;;;2.40;99.90;;;;;;4988296;28;20030;-79
2023/12/06 02:09:09;;;;;;;53.30;22.08;;;2.40;99.90;;;;;;5003782;28;20100;-80
2023/12/06 02:11:34;;;;;;;40.35;17.13;;;2.40;99.90;;;;;;4984492;28;20485;-80
2023/12/06 02:14:00;;;;;;;56.83;24.77;;;2.40;99.90;;;;;;4980734;28;20050;-80
2023/12/06 02:16:25;;;;;;;50.65;23.15;;;2.30;99.90;;;;;;4981795;28;20452;-80
2023/12/06 02:18:51;;;;;;;53.42;24.17;;;2.30;99.90;;;;;;4984396;28;20049;-80
2023/12/06 02:21:16;;;;;;;62.05;25.80;;;2.30;99.90;;;;;;4981662;28;20058;-79
2023/12/06 02:23:42;;;;;;;41.33;16.77;;;2.20;99.90;;;;;;5019578;28;20101;-79
2023/12/06 02:26:08;;;;;;;55.42;22.27;;;2.30;99.90;;;;;;4998453;28;20034;-79
2023/12/06 02:28:33;;;;;;;59.25;26.98;;;2.30;99.90;;;;;;4985658;28;20113;-79
2023/12/06 02:30:59;;;;;;;49.72;21.70;;;2.20;99.90;;;;;;4983487;28;20493;-80
2023/12/06 02:33:25;;;;;;;52.28;22.25;;;2.30;99.90;;;;;;4997387;28;20440;-79
2023/12/06 02:35:52;;;;;;;59.17;25.75;;;2.30;99.90;;;;;;4981963;28;20599;-79
2023/12/06 02:38:18;;;;;;;37.63;17.98;;;2.30;99.90;;;;;;4979504;28;20073;-79
2023/12/06 02:40:43;;;;;;;60.72;25.70;;;2.30;99.90;;;;;;5017031;28;20705;-79
2023/12/06 02:43:09;;;;;;;55.95;24.13;;;2.20;99.90;;;;;;4998317;28;20149;-80
2023/12/06 02:45:35;;;;;;;68.95;31.05;;;2.20;99.90;;;;;;5000139;28;20645;-79
2023/12/06 02:48:00;;;;;;;60.72;26.02;;;2.10;99.90;;;;;;4999216;28;20045;-79
2023/12/06 02:50:26;;;;;;;67.78;30.05;;;2.10;99.90;;;;;;5000936;28;20022;-79
2023/12/06 02:52:51;;;;;;;63.58;26.45;;;2.00;99.90;;;;;;5001401;28;20046;-79
2023/12/06 02:55:17;;;;;;;57.78;23.60;;;2.00;99.90;;;;;;4999320;28;20433;-79
2023/12/06 02:57:42;;;;;;;67.10;26.30;;;2.10;99.90;;;;;;5002594;28;20092;-79
2023/12/06 03:00:10;;;;;;;64.65;27.67;;;2.10;99.90;;;;;;4994234;28;20484;-79
2023/12/06 03:02:36;;;;;;;63.90;28.17;;;2.10;99.90;;;;;;4985971;28;20109;-79
2023/12/06 03:05:01;;;;;;;58.03;27.35;;;2.00;99.90;;;;;;4977431;28;20121;-79
2023/12/06 03:07:27;;;;;;;48.45;20.73;;;1.90;99.90;;;;;;4980842;28;20511;-79
2023/12/06 03:09:53;;;;;;;51.00;23.52;;;2.00;99.90;;;;;;4999154;28;20029;-79
2023/12/06 03:12:18;;;;;;;58.22;24.38;;;2.00;99.90;;;;;;4984715;28;20105;-79
2023/12/06 03:14:44;;;;;;;53.42;23.23;;;1.90;99.90;;;;;;4986811;28;20064;-78
2023/12/06 03:17:09;;;;;;;46.70;20.10;;;1.90;99.90;;;;;;4969108;28;20109;-78
2023/12/06 03:19:35;;;;;;;42.45;18.40;;;1.90;99.90;;;;;;4998855;28;20474;-78
2023/12/06 03:22:01;;;;;;;54.88;24.00;;;1.90;99.90;;;;;;4965539;28;20409;-78
2023/12/06 03:24:26;;;;;;;49.92;21.58;;;1.90;99.90;;;;;;4997497;28;20033;-78
2023/12/06 03:26:52;;;;;;;49.03;21.55;;;1.90;99.90;;;;;;5001068;28;20033;-78
2023/12/06 03:29:17;;;;;;;53.80;23.20;;;1.90;99.90;;;;;;5001678;28;20037;-78
2023/12/06 03:31:43;;;;;;;61.45;24.65;;;1.90;99.90;;;;;;4995715;28;20034;-79
2023/12/06 03:34:09;;;;;;;54.47;24.05;;;1.90;99.90;;;;;;4997219;28;20397;-78
2023/12/06 03:36:35;;;;;;;55.78;23.08;;;1.80;99.90;;;;;;4995703;28;20022;-78
2023/12/06 03:39:00;;;;;;;60.63;27.35;;;1.80;99.90;;;;;;4986979;28;20453;-78
2023/12/06 03:41:26;;;;;;;67.97;28.02;;;1.90;99.90;;;;;;5010253;28;20038;-78
2023/12/06 03:43:51;;;;;;;61.33;27.27;;;1.80;99.90;;;;;;5011683;28;20376;-78
2023/12/06 03:46:17;;;;;;;57.28;25.48;;;1.90;99.90;;;;;;4972091;28;20101;-78
2023/12/06 03:48:42;;;;;;;61.80;26.45;;;1.90;99.90;;;;;;4990106;28;20033;-77
2023/12/06 03:51:08;;;;;;;46.28;22.13;;;1.70;99.90;;;;;;4994145;28;20037;-79
2023/12/06 03:53:33;;;;;;;62.38;28.42;;;1.70;99.90;;;;;;4982523;28;20505;-78
2023/12/06 03:55:59;;;;;;;62.42;28.48;;;1.70;99.90;;;;;;4999133;28;20057;-78
2023/12/06 03:58:24;;;;;;;67.78;30.92;;;1.70;99.90;;;;;;5002846;28;20049;-78
2023/12/06 04:00:50;;;;;;;68.65;31.05;;;1.70;99.90;;;;;;4986786;28;20041;-79
2023/12/06 04:03:15;;;;;;;68.57;31.95;;;1.70;99.90;;;;;;4979670;28;20030;-77
2023/12/06 04:05:44;;;;;;;61.47;29.77;;;1.60;99.90;;;;;;4985883;28;20037;-78
2023/12/06 04:08:10;;;;;;;62.47;30.10;;;1.70;99.90;;;;;;5000365;28;20038;-78
2023/12/06 04:10:36;;;;;;;50.67;24.33;;;1.70;99.90;;;;;;4994862;28;20040;-77
2023/12/06 04:13:04;;;;;;;54.58;26.25;;;1.70;99.90;;;;;;4993282;28;20097;-78
2023/12/06 04:15:32;;;;;;;60.05;31.33;;;1.70;99.90;;;;;;4985427;28;20030;-79
2023/12/06 04:17:58;;;;;;;51.58;19.73;;;1.70;99.90;;;;;;4997083;28;20034;-77
2023/12/06 04:20:24;;;;;;;61.67;29.95;;;1.70;99.90;;;;;;4998467;28;20096;-78
2023/12/06 04:22:49;;;;;;;60.03;29.95;;;1.60;99.90;;;;;;4979559;28;20044;-77
2023/12/06 04:25:15;;;;;;;58.33;28.83;;;1.60;99.90;;;;;;4990369;28;20026;-78
2023/12/06 04:27:41;;;;;;;61.70;30.90;;;1.70;99.90;;;;;;4993449;28;20038;-79
2023/12/06 04:30:08;;;;;;;53.40;24.65;;;1.60;99.90;;;;;;5002648;28;20069;-78
2023/12/06 04:32:33;;;;;;;57.35;30.80;;;1.60;99.90;;;;;;5000722;28;20042;-78
2023/12/06 04:34:59;;;;;;;57.45;29.67;;;1.60;99.90;;;;;;5017679;28;20049;-78
2023/12/06 04:37:24;;;;;;;51.45;26.75;;;1.60;99.90;;;;;;4978541;28;20477;-78
2023/12/06 04:39:51;;;;;;;55.55;27.50;;;1.60;99.90;;;;;;5003698;28;20034;-78
2023/12/06 04:42:16;;;;;;;56.03;31.23;;;1.70;99.90;;;;;;5008530;28;20104;-78
2023/12/06 04:44:42;;;;;;;54.22;27.13;;;1.60;99.90;;;;;;4998914;28;20382;-78
2023/12/06 04:47:07;;;;;;;57.40;29.30;;;1.60;99.90;;;;;;5003643;28;20061;-78
2023/12/06 04:49:33;;;;;;;55.50;28.48;;;1.60;99.90;;;;;;4988113;28;20117;-79
2023/12/06 04:51:59;;;;;;;57.20;28.45;;;1.60;99.90;;;;;;4999197;28;20049;-78
2023/12/06 04:54:25;;;;;;;45.95;23.05;;;1.60;99.90;;;;;;4987890;28;20042;-77
2023/12/06 04:56:51;;;;;;;55.20;28.65;;;1.70;99.90;;;;;;5000355;28;20504;-78
2023/12/06 04:59:16;;;;;;;53.33;26.83;;;1.70;99.90;;;;;;4991705;28;20044;-78
2023/12/06 05:01:43;;;;;;;42.47;20.58;;;1.60;99.90;;;;;;5002062;28;20133;-78
2023/12/06 05:04:11;;;;;;;47.35;24.83;;;1.60;99.90;;;;;;4988746;28;20041;-78
2023/12/06 05:06:37;;;;;;;54.50;28.98;;;1.60;99.90;;;;;;5003320;28;20082;-78
2023/12/06 05:09:04;;;;;;;48.88;25.75;;;1.60;99.90;;;;;;4999573;28;20033;-78
2023/12/06 05:11:30;;;;;;;40.70;21.38;;;1.60;99.90;;;;;;4998734;28;20113;-78
2023/12/06 05:13:56;;;;;;;52.78;27.42;;;1.60;99.90;;;;;;4977619;28;20508;-78
2023/12/06 05:16:21;;;;;;;47.83;24.75;;;1.60;99.90;;;;;;4972005;28;20089;-79
2023/12/06 05:18:47;;;;;;;43.85;22.88;;;1.60;99.90;;;;;;4987128;28;20034;-78
2023/12/06 05:21:13;;;;;;;57.28;28.70;;;1.70;99.90;;;;;;4995817;28;20043;-78
2023/12/06 05:23:38;;;;;;;53.17;26.63;;;1.70;99.90;;;;;;4962473;28;20030;-77
2023/12/06 05:26:04;;;;;;;53.55;27.42;;;1.70;99.90;;;;;;5001199;28;20122;-77
2023/12/06 05:28:29;;;;;;;47.63;21.77;;;1.80;99.90;;;;;;4997785;28;20168;-76
2023/12/06 05:30:55;;;;;;;56.70;25.92;;;1.70;99.90;;;;;;4982855;28;20124;-77
2023/12/06 05:33:20;;;;;;;55.45;28.55;;;1.80;99.90;;;;;;4974531;28;20042;-77
2023/12/06 05:35:46;;;;;;;53.83;29.20;;;1.80;99.90;;;;;;4992000;28;20030;-77
2023/12/06 05:38:11;;;;;;;64.13;33.03;;;1.80;99.90;;;;;;4969307;28;20595;-77
2023/12/06 05:40:37;;;;;;;48.65;23.50;;;1.80;99.90;;;;;;4984023;28;20046;-76
2023/12/06 05:43:03;;;;;;;44.95;22.02;;;1.80;99.90;;;;;;4985624;28;20026;-77
2023/12/06 05:45:28;;;;;;;36.25;17.15;;;1.80;99.90;;;;;;4997195;28;20164;-77
2023/12/06 05:47:54;;;;;;;51.47;25.45;;;1.90;99.90;;;;;;4982421;28;20042;-77
2023/12/06 05:50:19;;;;;;;50.90;23.15;;;1.90;99.90;;;;;;4987119;28;20036;-77
2023/12/06 05:52:45;;;;;;;59.10;28.25;;;1.80;99.90;;;;;;4989057;28;20057;-77
2023/12/06 05:55:10;;;;;;;46.25;23.63;;;1.90;99.90;;;;;;4968946;28;20038;-77
2023/12/06 05:57:36;;;;;;;50.08;24.45;;;1.90;99.90;;;;;;4984320;28;20034;-77
2023/12/06 06:00:05;;;;;;;51.45;24.35;;;1.90;99.90;;;;;;4981978;28;20045;-77
2023/12/06 06:02:30;;;;;;;54.88;27.17;;;1.90;99.90;;;;;;4991322;28;20587;-77
2023/12/06 06:04:56;;;;;;;60.72;30.42;;;2.00;99.90;;;;;;4976703;28;20034;-76
2023/12/06 06:07:21;;;;;;;49.08;24.48;;;1.90;99.90;;;;;;4982108;28;20035;-77
2023/12/06 06:09:47;;;;;;;59.42;27.95;;;2.00;99.90;;;;;;5014382;28;20037;-77
2023/12/06 06:12:13;;;;;;;55.42;27.88;;;2.10;99.90;;;;;;4981480;28;20026;-77
2023/12/06 06:14:38;;;;;;;66.35;30.70;;;2.00;99.90;;;;;;4980179;28;20096;-77
2023/12/06 06:17:04;;;;;;;65.70;31.35;;;2.00;99.90;;;;;;4982080;28;20429;-77
2023/12/06 06:19:29;;;;;;;66.55;30.48;;;2.00;99.90;;;;;;4966333;28;20041;-77
2023/12/06 06:21:55;;;;;;;66.35;30.00;;;2.10;99.90;;;;;;4976018;28;20085;-78
2023/12/06 06:24:20;;;;;;;61.13;29.05;;;2.00;99.90;;;;;;4980399;28;20201;-77
2023/12/06 06:26:46;;;;;;;63.78;30.15;;;2.00;99.90;;;;;;4996643;28;20486;-78
2023/12/06 06:29:12;;;;;;;58.55;27.83;;;2.00;99.90;;;;;;4998035;28;20554;-78
2023/12/06 06:31:37;;;;;;;62.50;29.48;;;2.10;99.90;;;;;;4990242;28;20045;-77
2023/12/06 06:34:03;;;;;;;86.93;33.47;;;2.00;99.90;;;;;;4979075;28;20048;-78
2023/12/06 06:36:29;;;;;;;55.97;27.63;;;2.10;99.90;;;;;;4986906;28;20721;-77
2023/12/06 06:38:57;;;;;;;55.80;26.63;;;2.10;99.90;;;;;;4967684;28;20026;-77
2023/12/06 06:41:27;;;;;;;52.63;26.85;;;2.10;99.90;;;;;;4967883;28;20035;-78
2023/12/06 06:43:52;;;;;;;62.30;30.85;;;2.10;99.90;;;;;;4983687;28;20043;-78
2023/12/06 06:46:18;;;;;;;67.00;28.65;;;2.20;99.90;;;;;;4954474;28;20032;-77
2023/12/06 06:48:43;;;;;;;65.07;29.60;;;2.20;99.90;;;;;;4986664;28;20350;-77
2023/12/06 06:51:09;;;;;;;56.70;28.20;;;2.20;99.90;;;;;;4980831;28;20494;-76
2023/12/06 06:53:35;;;;;;;62.67;29.13;;;2.20;99.90;;;;;;4984368;28;20826;-77
2023/12/06 06:56:01;;;;;;;76.05;30.98;;;2.20;99.90;;;;;;4978046;28;20051;-76
2023/12/06 06:58:27;;;;;;;43.13;22.67;;;2.20;99.90;;;;;;4996035;28;20161;-76
2023/12/06 07:00:53;;;;;;;63.22;29.58;;;2.30;99.90;;;;;;4999186;28;20061;-77
2023/12/06 07:03:19;;;;;;;87.38;30.50;;;2.20;99.90;;;;;;4996398;28;20515;-77
2023/12/06 07:05:45;;;;;;;66.85;33.08;;;2.30;99.90;;;;;;4993447;28;20070;-77
2023/12/06 07:08:10;;;;;;;61.45;27.10;;;2.20;99.90;;;;;;5013423;28;20065;-77
2023/12/06 07:10:37;;;;;;;54.67;26.23;;;2.20;99.90;;;;;;4974157;28;20121;-77
2023/12/06 07:13:02;;;;;;;40.00;20.25;;;2.20;99.90;;;;;;4995769;28;20501;-77
2023/12/06 07:15:28;;;;;;;67.28;31.63;;;2.30;99.90;;;;;;4996998;28;20117;-78
2023/12/06 07:17:54;;;;;;;46.63;23.67;;;2.30;99.90;;;;;;5001483;28;20493;-77
2023/12/06 07:20:19;;;;;;;68.85;29.30;;;2.30;99.90;;;;;;5001629;28;20042;-77
2023/12/06 07:22:45;;;;;;;53.13;25.73;;;2.30;99.90;;;;;;4983943;28;20041;-77
2023/12/06 07:25:15;;;;;;;52.22;25.13;;;2.30;99.90;;;;;;4997662;28;20030;-78
2023/12/06 07:27:44;;;;;;;54.00;24.80;;;2.30;99.90;;;;;;4991698;28;20597;-78
2023/12/06 07:30:13;;;;;;;50.97;24.63;;;2.40;99.90;;;;;;4980037;28;20132;-77
2023/12/06 07:32:39;;;;;;;53.38;24.33;;;2.40;99.90;;;;;;4991924;28;20570;-77
2023/12/06 07:35:05;;;;;;;35.95;16.88;;;2.40;99.90;;;;;;4975654;28;20031;-77
2023/12/06 07:37:30;;;;;;;42.28;19.77;;;2.40;99.90;;;;;;4962865;28;20165;-77
2023/12/06 07:39:56;;;;;;;47.33;21.38;;;2.50;99.90;;;;;;5012248;28;20144;-78
2023/12/06 07:42:21;;;;;;;51.47;24.52;;;2.40;99.90;;;;;;4981230;28;20124;-77
2023/12/06 07:44:47;;;;;;;49.75;22.33;;;2.40;99.90;;;;;;4998188;28;20030;-77
2023/12/06 07:47:15;;;;;;;41.45;22.08;;;2.50;99.90;;;;;;4998270;28;20034;-77
2023/12/06 07:49:42;;;;;;;55.10;26.00;;;2.50;99.90;;;;;;4996320;28;20120;-77
2023/12/06 07:52:08;;;;;;;58.47;28.60;;;2.50;99.90;;;;;;4966303;28;20023;-78
2023/12/06 07:54:33;;;;;;;30.40;14.27;;;2.50;99.90;;;;;;4980100;28;20069;-78
2023/12/06 07:56:59;;;;;;;70.03;35.97;;;2.50;99.90;;;;;;5000779;28;20079;-78
2023/12/06 07:59:24;;;;;;;69.13;35.00;;;2.50;99.90;;;;;;4982087;28;20061;-78
2023/12/06 08:01:50;;;;;;;55.38;27.50;;;2.50;99.90;;;;;;4997424;28;20504;-78
2023/12/06 08:04:15;;;;;;;68.78;33.08;;;2.50;99.90;;;;;;4999064;28;20041;-78
2023/12/06 08:06:41;;;;;;;33.60;16.13;;;2.50;99.90;;;;;;4999080;28;20034;-79
2023/12/06 08:09:10;;;;;;;49.67;27.38;;;2.50;99.90;;;;;;4996504;28;20046;-77
2023/12/06 08:11:36;;;;;;;53.05;28.58;;;2.60;99.90;;;;;;4996729;28;20071;-78
2023/12/06 08:14:02;;;;;;;52.08;26.33;;;2.60;99.90;;;;;;4980342;28;20072;-77
2023/12/06 08:16:28;;;;;;;49.22;22.63;;;2.60;99.90;;;;;;4980491;28;20034;-77
2023/12/06 08:18:53;;;;;;;36.25;20.08;;;2.60;99.90;;;;;;5017313;28;20101;-78
2023/12/06 08:21:19;;;;;;;47.95;23.80;;;2.70;99.90;;;;;;4966070;28;20026;-78
2023/12/06 08:23:44;;;;;;;52.40;25.52;;;2.60;99.90;;;;;;4968169;28;20034;-78
2023/12/06 08:26:10;;;;;;;61.20;30.05;;;2.60;99.90;;;;;;4996617;28;20025;-78
2023/12/06 08:28:36;;;;;;;47.97;23.58;;;2.70;99.90;;;;;;4993645;28;20042;-77
2023/12/06 08:31:02;;;;;;;55.08;28.27;;;2.70;99.90;;;;;;5002508;28;20386;-77
2023/12/06 08:33:28;;;;;;;59.53;30.05;;;2.70;99.90;;;;;;4982251;28;20482;-78
2023/12/06 08:35:54;;;;;;;56.92;29.80;;;2.70;99.90;;;;;;4983483;28;20038;-77
2023/12/06 08:38:19;;;;;;;63.22;32.15;;;2.70;99.90;;;;;;4998021;28;20456;-78
2023/12/06 08:40:46;;;;;;;56.05;28.63;;;2.70;99.90;;;;;;4986659;28;20437;-78
2023/12/06 08:43:11;;;;;;;52.42;27.00;;;2.70;99.90;;;;;;5000991;28;20045;-78
2023/12/06 08:45:37;;;;;;;57.38;29.92;;;2.70;99.90;;;;;;5001921;28;20037;-77
2023/12/06 08:48:04;;;;;;;44.78;22.58;;;2.80;99.90;;;;;;4988707;28;20034;-77
2023/12/06 08:50:29;;;;;;;58.83;30.05;;;2.80;99.90;;;;;;4998620;28;20061;-79
2023/12/06 08:52:55;;;;;;;56.63;28.92;;;2.80;99.90;;;;;;4983448;28;20473;-78
2023/12/06 08:55:20;;;;;;;55.83;27.80;;;2.80;99.90;;;;;;5002827;28;20033;-77
2023/12/06 08:57:46;;;;;;;60.85;31.33;;;2.80;99.90;;;;;;4988509;28;20034;-78
2023/12/06 09:00:12;;;;;;;46.83;22.90;;;2.80;99.90;;;;;;5000439;28;20026;-78
2023/12/06 09:02:39;;;;;;;57.35;28.67;;;2.90;99.90;;;;;;4997604;28;20525;-79
2023/12/06 09:05:05;;;;;;;46.58;22.73;;;2.90;99.90;;;;;;4999035;28;20042;-77
2023/12/06 09:07:31;;;;;;;50.38;24.77;;;2.90;99.90;;;;;;4987983;28;20034;-77
2023/12/06 09:09:56;;;;;;;41.42;20.77;;;2.90;99.90;;;;;;4969382;28;20097;-78
2023/12/06 09:12:22;;;;;;;44.47;21.83;;;2.90;99.90;;;;;;4983443;28;20381;-78
2023/12/06 09:14:48;;;;;;;50.15;27.13;;;3.00;99.90;;;;;;5003285;28;20045;-78
2023/12/06 09:17:13;;;;;;;47.40;26.05;;;3.00;99.90;;;;;;5002094;28;20368;-78
2023/12/06 09:19:39;;;;;;;45.20;24.75;;;3.00;99.90;;;;;;4974501;28;20031;-77
2023/12/06 09:22:05;;;;;;;49.10;24.75;;;3.00;99.90;;;;;;4980684;28;20030;-78
2023/12/06 09:24:32;;;;;;;49.78;28.00;;;3.10;99.90;;;;;;4981267;28;20030;-77
2023/12/06 09:26:57;;;;;;;50.40;25.10;;;3.10;99.90;;;;;;5001294;28;20045;-78
2023/12/06 09:29:23;;;;;;;38.90;21.38;;;3.10;99.90;;;;;;4992597;28;20470;-78
2023/12/06 09:31:49;;;;;;;48.92;24.77;;;3.10;99.90;;;;;;4964030;28;20483;-78
2023/12/06 09:34:15;;;;;;;45.75;26.75;;;3.20;99.90;;;;;;4994203;28;20058;-77
2023/12/06 09:36:41;;;;;;;41.33;21.60;;;3.20;99.90;;;;;;4994591;28;20446;-78
2023/12/06 09:39:07;;;;;;;40.00;22.23;;;3.20;99.90;;;;;;5001918;28;20118;-77
2023/12/06 09:41:33;;;;;;;40.42;23.10;;;3.20;99.90;;;;;;5001704;28;20054;-76
2023/12/06 09:44:01;;;;;;;36.85;21.50;;;3.30;99.90;;;;;;4983540;28;20029;-78
2023/12/06 09:46:27;;;;;;;38.33;23.02;;;3.30;99.90;;;;;;4999794;28;21361;-77
2023/12/06 09:48:52;;;;;;;32.30;19.55;;;3.30;99.90;;;;;;4999325;28;20081;-77
2023/12/06 09:51:19;;;;;;;35.17;22.67;;;3.30;99.90;;;;;;4982102;28;20026;-76
2023/12/06 09:53:45;;;;;;;33.38;20.00;;;3.30;99.90;;;;;;5000505;28;20541;-77
2023/12/06 09:56:10;;;;;;;38.53;22.95;;;3.30;99.90;;;;;;4995722;28;20038;-78
2023/12/06 09:58:36;;;;;;;31.65;19.02;;;3.30;99.90;;;;;;4998316;28;20370;-78
2023/12/06 10:01:03;;;;;;;33.45;18.10;;;3.30;99.90;;;;;;4985761;28;20474;-79
2023/12/06 10:03:28;;;;;;;32.40;19.48;;;3.40;99.90;;;;;;4963776;28;20070;-79
2023/12/06 10:05:56;;;;;;;33.70;21.10;;;3.40;99.90;;;;;;4973678;28;20045;-78
2023/12/06 10:08:21;;;;;;;33.05;20.02;;;3.30;99.90;;;;;;5001226;28;20085;-77
2023/12/06 10:10:47;;;;;;;33.13;18.55;;;3.40;99.90;;;;;;4999229;28;20026;-79
2023/12/06 10:13:12;;;;;;;29.85;19.20;;;3.40;99.90;;;;;;4976648;28;20030;-80
2023/12/06 10:15:39;;;;;;;30.40;18.15;;;3.40;99.90;;;;;;5001339;28;20145;-81
2023/12/06 10:18:04;;;;;;;28.25;19.35;;;3.50;99.90;;;;;;4996860;28;20113;-82
2023/12/06 10:20:31;;;;;;;31.42;18.15;;;3.60;99.90;;;;;;4984504;28;20486;-81
2023/12/06 10:22:57;;;;;;;29.50;17.38;;;3.60;99.90;;;;;;4983257;28;20041;-81
2023/12/06 10:25:23;;;;;;;24.75;15.65;;;3.60;99.90;;;;;;5002313;28;20081;-83
2023/12/06 10:27:49;;;;;;;29.08;18.38;;;3.70;99.90;;;;;;5000898;28;20031;-83
2023/12/06 10:30:21;;;;;;;27.42;16.63;;;3.70;99.90;;;;;;5003037;28;20516;-82
2023/12/06 10:32:46;;;;;;;34.50;20.33;;;3.70;99.90;;;;;;4999410;28;20030;-80
2023/12/06 10:35:12;;;;;;;32.05;20.60;;;3.70;99.90;;;;;;4970977;28;20032;-83
2023/12/06 10:37:37;;;;;;;30.70;18.77;;;3.80;99.90;;;;;;4983587;28;20021;-82
2023/12/06 10:40:09;;;;;;;29.77;18.00;;;3.80;99.90;;;;;;4985679;28;20558;-81
2023/12/06 10:42:35;;;;;;;37.83;21.58;;;3.80;99.90;;;;;;4987507;28;20053;-81
2023/12/06 10:45:01;;;;;;;29.40;17.58;;;3.80;99.90;;;;;;5001220;28;20034;-77
2023/12/06 10:47:26;;;;;;;35.63;22.02;;;3.80;99.90;;;;;;4993614;28;20089;-78
2023/12/06 10:49:52;;;;;;;33.28;19.73;;;3.90;99.90;;;;;;4995115;28;20058;-78
2023/12/06 10:52:18;;;;;;;39.08;21.75;;;3.90;99.90;;;;;;4994216;28;20567;-77
2023/12/06 10:54:44;;;;;;;39.22;21.10;;;3.90;99.90;;;;;;4980375;28;20034;-77
2023/12/06 10:57:09;;;;;;;53.92;29.48;;;4.00;99.90;;;;;;4981851;28;20027;-79
2023/12/06 10:59:35;;;;;;;48.80;25.02;;;4.00;99.90;;;;;;4986726;28;20084;-79
2023/12/06 11:02:00;;;;;;;29.10;15.52;;;4.00;99.90;;;;;;4986150;28;20501;-79
2023/12/06 11:04:31;;;;;;;34.03;19.05;;;4.10;99.90;;;;;;5030733;28;20047;-79
2023/12/06 11:07:15;;;;;;;36.95;20.23;;;4.10;99.90;;;;;;4998572;28;20567;-78
2023/12/06 11:09:54;;;;;;;47.00;26.73;;;4.10;99.90;;;;;;4997090;28;20037;-77
2023/12/06 11:12:41;;;;;;;53.03;28.30;;;4.10;99.90;;;;;;4987838;28;20478;-78
2023/12/06 11:15:28;;;;;;;37.58;22.48;;;4.10;99.90;;;;;;4999635;28;20045;-79
2023/12/06 11:18:19;;;;;;;53.80;29.50;;;4.20;99.90;;;;;;4996181;28;20120;-79
2023/12/06 11:20:44;;;;;;;46.47;23.90;;;4.20;99.90;;;;;;4997514;28;20030;-79
2023/12/06 11:23:11;;;;;;;43.70;22.85;;;4.30;99.90;;;;;;4996999;28;20041;-79
2023/12/06 11:25:44;;;;;;;44.10;22.95;;;4.30;99.90;;;;;;4997432;28;20045;-80
2023/12/06 11:28:12;;;;;;;55.67;30.52;;;4.30;99.90;;;;;;4990587;28;20030;-79
2023/12/06 11:30:54;;;;;;;35.40;18.30;;;4.30;99.90;;;;;;4980856;28;20129;-79
2023/12/06 11:33:19;;;;;;;49.85;28.52;;;4.30;99.90;;;;;;4978283;28;20038;-77
2023/12/06 11:35:49;;;;;;;50.97;28.13;;;4.40;99.90;;;;;;4981077;28;20034;-81
2023/12/06 11:38:15;;;;;;;20.30;11.02;;;4.40;99.90;;;;;;4963920;28;20030;-79
2023/12/06 11:40:50;;;;;;;51.63;27.73;;;4.40;99.90;;;;;;4992985;28;20026;-79
2023/12/06 11:43:16;;;;;;;37.60;20.98;;;4.40;99.90;;;;;;4997423;28;20038;-78
2023/12/06 11:45:42;;;;;;;47.05;27.02;;;4.40;99.90;;;;;;4999552;28;20089;-78
2023/12/06 11:48:12;;;;;;;48.58;25.65;;;4.40;99.90;;;;;;4991835;28;20505;-81
2023/12/06 11:50:42;;;;;;;44.70;26.08;;;4.40;99.90;;;;;;4982021;28;20035;-79
2023/12/06 11:53:07;;;;;;;52.58;30.40;;;4.50;99.90;;;;;;4985968;28;20066;-77
2023/12/06 11:55:34;;;;;;;53.15;29.88;;;4.50;99.90;;;;;;4973342;28;20027;-77
2023/12/06 11:58:06;;;;;;;43.20;21.13;;;4.50;99.90;;;;;;4995933;28;20026;-78
2023/12/06 12:00:31;;;;;;;40.95;20.70;;;4.50;99.90;;;;;;5013648;28;20056;-77
2023/12/06 12:02:58;;;;;;;47.20;26.30;;;4.50;99.90;;;;;;4971561;28;20478;-78
2023/12/06 12:05:24;;;;;;;43.92;23.77;;;4.40;99.90;;;;;;4987151;28;20038;-77
2023/12/06 12:07:50;;;;;;;37.50;21.83;;;4.50;99.90;;;;;;4265805;28;10000561;-79
2023/12/06 12:10:16;;;;;;;14.40;9.50;;;4.50;99.90;;;;;;4991249;28;20089;-77
2023/12/06 12:12:42;;;;;;;38.55;21.77;;;4.50;99.90;;;;;;4958889;28;20477;-77
2023/12/06 12:15:07;;;;;;;47.92;27.25;;;4.50;99.90;;;;;;5000659;28;20076;-78
2023/12/06 12:17:34;;;;;;;43.67;28.63;;;4.50;99.90;;;;;;5000282;28;20034;-78
2023/12/06 12:20:00;;;;;;;40.40;25.98;;;4.50;99.90;;;;;;4984064;28;20117;-78
2023/12/06 12:22:25;;;;;;;42.30;26.52;;;4.50;99.90;;;;;;4984804;28;20551;-78
2023/12/06 12:24:54;;;;;;;38.00;24.42;;;4.50;99.90;;;;;;4986592;28;20059;-78
2023/12/06 12:27:20;;;;;;;35.80;21.05;;;4.50;99.90;;;;;;4999941;28;20872;-77
2023/12/06 12:29:47;;;;;;;45.33;25.02;;;4.50;99.90;;;;;;4988541;28;20031;-78